Aérodrome :
LOGIN :

S'inscrire | Disclaimer

   EN    FR    IT 

 










Légende :    VFR   VFR Marginal   IFR   IFR Intensif   IFR Très Intensif
Visi : 
Plafond : 
>= 8 km
>= 3000ft
5 à 8 km
1000 à 3000 ft
1500m à 5 km
500 à 1000 ft
800 à 1500m
200 à 500 ft
< 800m
< 200 ft
Symboles :   Orages  Brouillard  Fortes neiges  Fortes précipitations  Vent > 20 kt
SIGMETs :   Divers  Orages  Givrage  Turbulence  Onde Orograph.  Cendres Volcan.






- Altitude de l'aérodrome : 359 ft
- Code IATA : BVA


LFOB - Beauvais

DERNIER METAR :
  • 250530Z AUTO 12006KT 0400 R30/0700N R12/0450N FG VV/// 01/00 Q1021 NOSIG

METARs EXPIRÉS :
  • 250500Z AUTO 11005KT 0350 R30/0550N R12/0400N FG VV/// 01/00 Q1021 NOSIG
  • 250430Z AUTO 10005KT 0350 R30/0550N R12/0400N FG VV/// 01/01 Q1021 NOSIG
  • 250400Z AUTO 09004KT 0350 R30/0500N R12/0450N FG VV/// 01/00 Q1021 NOSIG
  • 250330Z AUTO 07003KT 0400 0300 R30/0550N R12/0450N FG VV/// 01/00 Q1021 NOSIG
  • 250300Z AUTO VRB01KT 0400 R30/0600N R12/0550N FG VV/// 01/00 Q1021 NOSIG

TAF TAF LFOB
Valide du 25 à 06h jusqu'au 26 à 06h UTC


250500Z 2506/2606 12005KT 0300 FG VV///
BECMG 2511/2514 2000 BR OVC003
TEMPO 2519/2606 0300 FG VV///
ATIS : +33 3 44 11 49 28



MET'MAP, la Météo Aéronautique d'un coup d'oeil ! - Copyright ORBIFLY Décembre 2007 - Disclaimer

ORBIFLY MET'MAP TEAM :

Programmation & Développement : Alexandra Zaïnal
Sur une idée originale de : Baudouin d'Aumeries
Assistance à la programmation : Marc-Olivier Méhu
Soutien technique & logistique : Manuel Goepfert

Contact : metmap@orbifly.com




SOURCES & CREDITS :

   NOAA